成都 の空港の天気 - METARとTAF

成都双流国際空港 ( ZUUU / CTU ) - 中国 四川省成都市
飛行場実況気象(Metar)
観測時間07/17 01:00 CST (07/16 17:00 UTC)
風向・風速不定 1m/s
視程10km以上
天気現象
全天の4割程度の雲 雲底高度 1520m
気温23℃
湿度78%
気圧1002hPa
METARZUUU 161700Z VRB01MPS 9999 SCT050 23/19 Q1002 NOSIG
過去の天気等 Google飛行場航空写真 Wunderground天気予報

過去48時間のMETAR

飛行場予報(TAF)
発表時間: 7/16 17:01 CST (7/16 09:01 UTC)
予報対象時間: 16日20時 CST ~ 17日20時 CST
風向・風速北北東 3m/s
視程5000m
天気現象もや
全天の4割程度の雲 雲底高度 910m
16日20時 CST ~ 17日2時 CST に一時的に
天気現象弱いしゅう雨
TAF ZUUU 160901Z 1612/1712 02003MPS 5000 BR SCT030 TX30/1707Z TN23/1622Z
TEMPO 1612/1618 -SHRA